sensor_id;sensor_type;location;lat;lon;timestamp;P1;durP1;ratioP1;P2;durP2;ratioP2
34828;SDS011;21042;47.620;12.188;2022-10-31T00:00:55;13.23;;;5.38;;
34828;SDS011;21042;47.620;12.188;2022-10-31T00:05:49;17.23;;;5.53;;
34828;SDS011;21042;47.620;12.188;2022-10-31T00:08:16;10.55;;;4.63;;
34828;SDS011;21042;47.620;12.188;2022-10-31T00:10:44;14.80;;;5.13;;
34828;SDS011;21042;47.620;12.188;2022-10-31T00:13:12;15.75;;;5.07;;
34828;SDS011;21042;47.620;12.188;2022-10-31T00:15:40;16.73;;;5.13;;
34828;SDS011;21042;47.620;12.188;2022-10-31T00:18:07;14.27;;;6.40;;
34828;SDS011;21042;47.620;12.188;2022-10-31T00:20:35;14.57;;;4.60;;
34828;SDS011;21042;47.620;12.188;2022-10-31T00:23:03;15.98;;;4.57;;
34828;SDS011;21042;47.620;12.188;2022-10-31T00:25:35;13.82;;;4.65;;
34828;SDS011;21042;47.620;12.188;2022-10-31T00:28:04;17.70;;;4.78;;
34828;SDS011;21042;47.620;12.188;2022-10-31T00:30:32;9.23;;;3.90;;
34828;SDS011;21042;47.620;12.188;2022-10-31T00:33:00;17.00;;;4.70;;
34828;SDS011;21042;47.620;12.188;2022-10-31T00:35:30;12.15;;;4.20;;
34828;SDS011;21042;47.620;12.188;2022-10-31T00:37:57;10.50;;;3.50;;
34828;SDS011;21042;47.620;12.188;2022-10-31T00:40:24;9.35;;;3.58;;
34828;SDS011;21042;47.620;12.188;2022-10-31T00:42:52;13.70;;;3.63;;
34828;SDS011;21042;47.620;12.188;2022-10-31T00:45:19;9.73;;;3.38;;
34828;SDS011;21042;47.620;12.188;2022-10-31T00:47:46;15.68;;;3.75;;
34828;SDS011;21042;47.620;12.188;2022-10-31T00:50:13;8.63;;;3.28;;
34828;SDS011;21042;47.620;12.188;2022-10-31T00:52:40;10.52;;;2.70;;
34828;SDS011;21042;47.620;12.188;2022-10-31T00:55:07;11.85;;;3.42;;
34828;SDS011;21042;47.620;12.188;2022-10-31T00:57:33;12.23;;;3.05;;
34828;SDS011;21042;47.620;12.188;2022-10-31T01:00:02;11.35;;;3.67;;
34828;SDS011;21042;47.620;12.188;2022-10-31T01:02:29;11.63;;;3.45;;
34828;SDS011;21042;47.620;12.188;2022-10-31T01:04:56;6.95;;;3.50;;
34828;SDS011;21042;47.620;12.188;2022-10-31T01:07:23;9.52;;;2.70;;
34828;SDS011;21042;47.620;12.188;2022-10-31T01:09:49;8.00;;;3.22;;
34828;SDS011;21042;47.620;12.188;2022-10-31T01:12:18;10.90;;;3.10;;
34828;SDS011;21042;47.620;12.188;2022-10-31T01:14:45;8.95;;;3.35;;
34828;SDS011;21042;47.620;12.188;2022-10-31T01:17:12;10.43;;;3.55;;
34828;SDS011;21042;47.620;12.188;2022-10-31T01:19:39;12.98;;;4.75;;
34828;SDS011;21042;47.620;12.188;2022-10-31T01:22:06;8.45;;;3.80;;
34828;SDS011;21042;47.620;12.188;2022-10-31T01:24:33;10.73;;;3.95;;
34828;SDS011;21042;47.620;12.188;2022-10-31T01:27:01;14.35;;;5.43;;
34828;SDS011;21042;47.620;12.188;2022-10-31T01:29:31;9.70;;;3.92;;
34828;SDS011;21042;47.620;12.188;2022-10-31T01:31:58;12.35;;;5.07;;
34828;SDS011;21042;47.620;12.188;2022-10-31T01:34:25;9.68;;;4.30;;
34828;SDS011;21042;47.620;12.188;2022-10-31T01:36:52;11.75;;;4.50;;
34828;SDS011;21042;47.620;12.188;2022-10-31T01:39:20;9.77;;;4.25;;
34828;SDS011;21042;47.620;12.188;2022-10-31T01:41:48;9.07;;;3.40;;
34828;SDS011;21042;47.620;12.188;2022-10-31T01:49:18;12.20;;;3.28;;
34828;SDS011;21042;47.620;12.188;2022-10-31T01:51:53;8.35;;;3.10;;
34828;SDS011;21042;47.620;12.188;2022-10-31T01:54:25;11.52;;;3.83;;
34828;SDS011;21042;47.620;12.188;2022-10-31T01:56:58;10.35;;;3.30;;
34828;SDS011;21042;47.620;12.188;2022-10-31T01:59:26;7.38;;;3.33;;
34828;SDS011;21042;47.620;12.188;2022-10-31T02:01:56;7.75;;;2.90;;
34828;SDS011;21042;47.620;12.188;2022-10-31T02:04:23;11.65;;;3.58;;
34828;SDS011;21042;47.620;12.188;2022-10-31T02:06:53;12.52;;;3.00;;
34828;SDS011;21042;47.620;12.188;2022-10-31T02:09:27;9.55;;;3.53;;
34828;SDS011;21042;47.620;12.188;2022-10-31T02:11:57;14.77;;;4.85;;
34828;SDS011;21042;47.620;12.188;2022-10-31T02:14:28;10.35;;;3.83;;
34828;SDS011;21042;47.620;12.188;2022-10-31T02:16:56;7.55;;;3.40;;
34828;SDS011;21042;47.620;12.188;2022-10-31T02:32:43;4.65;;;2.10;;
34828;SDS011;21042;47.620;12.188;2022-10-31T02:35:44;9.80;;;3.35;;
34828;SDS011;21042;47.620;12.188;2022-10-31T02:41:44;10.13;;;2.40;;
34828;SDS011;21042;47.620;12.188;2022-10-31T02:44:27;7.78;;;2.58;;
34828;SDS011;21042;47.620;12.188;2022-10-31T02:47:02;8.33;;;3.37;;
34828;SDS011;21042;47.620;12.188;2022-10-31T02:49:34;8.68;;;2.67;;
34828;SDS011;21042;47.620;12.188;2022-10-31T02:52:22;9.77;;;3.05;;
34828;SDS011;21042;47.620;12.188;2022-10-31T02:54:51;15.27;;;3.47;;
34828;SDS011;21042;47.620;12.188;2022-10-31T02:57:36;7.05;;;2.88;;
34828;SDS011;21042;47.620;12.188;2022-10-31T03:00:06;8.68;;;2.88;;
34828;SDS011;21042;47.620;12.188;2022-10-31T03:05:36;9.23;;;3.17;;
34828;SDS011;21042;47.620;12.188;2022-10-31T03:11:02;14.15;;;2.60;;
34828;SDS011;21042;47.620;12.188;2022-10-31T03:13:49;9.48;;;2.47;;
34828;SDS011;21042;47.620;12.188;2022-10-31T03:22:19;10.55;;;2.53;;
34828;SDS011;21042;47.620;12.188;2022-10-31T03:24:49;13.23;;;2.55;;
34828;SDS011;21042;47.620;12.188;2022-10-31T03:27:22;7.35;;;2.30;;
34828;SDS011;21042;47.620;12.188;2022-10-31T03:30:03;11.70;;;2.65;;
34828;SDS011;21042;47.620;12.188;2022-10-31T03:32:44;11.13;;;2.65;;
34828;SDS011;21042;47.620;12.188;2022-10-31T03:35:16;12.35;;;2.60;;
34828;SDS011;21042;47.620;12.188;2022-10-31T03:37:46;5.55;;;2.50;;
34828;SDS011;21042;47.620;12.188;2022-10-31T03:40:15;6.00;;;3.17;;
34828;SDS011;21042;47.620;12.188;2022-10-31T03:42:46;11.65;;;3.10;;
34828;SDS011;21042;47.620;12.188;2022-10-31T03:45:29;9.25;;;3.22;;
34828;SDS011;21042;47.620;12.188;2022-10-31T03:47:57;9.32;;;2.20;;
34828;SDS011;21042;47.620;12.188;2022-10-31T03:50:28;9.50;;;2.35;;
34828;SDS011;21042;47.620;12.188;2022-10-31T03:55:41;9.45;;;2.53;;
34828;SDS011;21042;47.620;12.188;2022-10-31T03:58:19;8.35;;;2.22;;
34828;SDS011;21042;47.620;12.188;2022-10-31T04:00:51;9.80;;;2.25;;
34828;SDS011;21042;47.620;12.188;2022-10-31T04:03:25;10.00;;;2.28;;
34828;SDS011;21042;47.620;12.188;2022-10-31T04:06:00;10.85;;;3.33;;
34828;SDS011;21042;47.620;12.188;2022-10-31T04:08:36;8.05;;;2.72;;
34828;SDS011;21042;47.620;12.188;2022-10-31T04:11:11;11.25;;;3.20;;
34828;SDS011;21042;47.620;12.188;2022-10-31T04:13:45;10.55;;;2.83;;
34828;SDS011;21042;47.620;12.188;2022-10-31T04:16:19;9.77;;;2.95;;
34828;SDS011;21042;47.620;12.188;2022-10-31T04:18:48;14.77;;;3.70;;
34828;SDS011;21042;47.620;12.188;2022-10-31T04:21:15;12.40;;;2.80;;
34828;SDS011;21042;47.620;12.188;2022-10-31T04:26:17;5.40;;;1.98;;
34828;SDS011;21042;47.620;12.188;2022-10-31T04:28:45;8.43;;;2.65;;
34828;SDS011;21042;47.620;12.188;2022-10-31T04:31:12;8.30;;;2.83;;
34828;SDS011;21042;47.620;12.188;2022-10-31T04:33:41;10.18;;;2.45;;
34828;SDS011;21042;47.620;12.188;2022-10-31T04:36:08;10.15;;;3.10;;
34828;SDS011;21042;47.620;12.188;2022-10-31T04:38:36;9.07;;;3.25;;
34828;SDS011;21042;47.620;12.188;2022-10-31T04:41:10;11.85;;;3.00;;
34828;SDS011;21042;47.620;12.188;2022-10-31T04:43:57;16.85;;;5.15;;
34828;SDS011;21042;47.620;12.188;2022-10-31T04:46:26;16.27;;;5.47;;
34828;SDS011;21042;47.620;12.188;2022-10-31T04:48:53;21.08;;;6.30;;
34828;SDS011;21042;47.620;12.188;2022-10-31T04:51:20;17.10;;;4.25;;
34828;SDS011;21042;47.620;12.188;2022-10-31T04:53:47;8.13;;;3.45;;
34828;SDS011;21042;47.620;12.188;2022-10-31T04:56:26;11.05;;;3.78;;
34828;SDS011;21042;47.620;12.188;2022-10-31T04:59:03;12.02;;;4.22;;
34828;SDS011;21042;47.620;12.188;2022-10-31T05:01:43;8.90;;;3.30;;
34828;SDS011;21042;47.620;12.188;2022-10-31T05:04:10;13.85;;;3.30;;
34828;SDS011;21042;47.620;12.188;2022-10-31T05:06:37;14.02;;;4.07;;
34828;SDS011;21042;47.620;12.188;2022-10-31T05:09:03;13.55;;;4.22;;
34828;SDS011;21042;47.620;12.188;2022-10-31T05:11:30;11.45;;;4.22;;
34828;SDS011;21042;47.620;12.188;2022-10-31T05:14:08;11.93;;;3.38;;
34828;SDS011;21042;47.620;12.188;2022-10-31T05:16:57;13.68;;;3.90;;
34828;SDS011;21042;47.620;12.188;2022-10-31T05:19:44;13.15;;;2.97;;
34828;SDS011;21042;47.620;12.188;2022-10-31T05:22:29;9.68;;;3.33;;
34828;SDS011;21042;47.620;12.188;2022-10-31T05:24:56;13.57;;;2.70;;
34828;SDS011;21042;47.620;12.188;2022-10-31T05:27:23;12.10;;;3.20;;
34828;SDS011;21042;47.620;12.188;2022-10-31T05:29:50;10.55;;;3.40;;
34828;SDS011;21042;47.620;12.188;2022-10-31T05:32:17;11.25;;;4.03;;
34828;SDS011;21042;47.620;12.188;2022-10-31T05:35:14;10.15;;;4.75;;
34828;SDS011;21042;47.620;12.188;2022-10-31T05:38:10;10.20;;;4.28;;
34828;SDS011;21042;47.620;12.188;2022-10-31T05:40:37;10.30;;;4.47;;
34828;SDS011;21042;47.620;12.188;2022-10-31T05:43:04;20.17;;;3.45;;
34828;SDS011;21042;47.620;12.188;2022-10-31T05:45:31;20.05;;;3.72;;
34828;SDS011;21042;47.620;12.188;2022-10-31T05:48:02;12.38;;;3.45;;
34828;SDS011;21042;47.620;12.188;2022-10-31T05:50:59;8.82;;;3.13;;
34828;SDS011;21042;47.620;12.188;2022-10-31T05:53:26;9.90;;;2.90;;
34828;SDS011;21042;47.620;12.188;2022-10-31T05:55:53;10.50;;;3.00;;
34828;SDS011;21042;47.620;12.188;2022-10-31T05:58:21;12.32;;;2.97;;
34828;SDS011;21042;47.620;12.188;2022-10-31T06:00:56;6.30;;;2.80;;
34828;SDS011;21042;47.620;12.188;2022-10-31T06:03:23;13.05;;;4.20;;
34828;SDS011;21042;47.620;12.188;2022-10-31T06:05:57;10.90;;;3.67;;
34828;SDS011;21042;47.620;12.188;2022-10-31T06:08:29;13.40;;;3.75;;
34828;SDS011;21042;47.620;12.188;2022-10-31T06:10:59;8.38;;;3.53;;
34828;SDS011;21042;47.620;12.188;2022-10-31T06:13:49;10.93;;;3.47;;
34828;SDS011;21042;47.620;12.188;2022-10-31T06:16:21;15.30;;;4.28;;
34828;SDS011;21042;47.620;12.188;2022-10-31T06:18:49;14.77;;;4.93;;
34828;SDS011;21042;47.620;12.188;2022-10-31T06:21:16;18.77;;;4.78;;
34828;SDS011;21042;47.620;12.188;2022-10-31T06:23:47;18.33;;;4.68;;
34828;SDS011;21042;47.620;12.188;2022-10-31T06:26:37;18.52;;;5.03;;
34828;SDS011;21042;47.620;12.188;2022-10-31T06:29:04;13.27;;;4.47;;
34828;SDS011;21042;47.620;12.188;2022-10-31T06:31:52;14.27;;;4.88;;
34828;SDS011;21042;47.620;12.188;2022-10-31T06:34:22;16.42;;;5.03;;
34828;SDS011;21042;47.620;12.188;2022-10-31T06:36:49;10.85;;;4.40;;
34828;SDS011;21042;47.620;12.188;2022-10-31T06:39:19;11.32;;;3.60;;
34828;SDS011;21042;47.620;12.188;2022-10-31T06:41:49;11.75;;;3.40;;
34828;SDS011;21042;47.620;12.188;2022-10-31T06:44:18;7.35;;;3.20;;
34828;SDS011;21042;47.620;12.188;2022-10-31T06:46:57;11.75;;;4.93;;
34828;SDS011;21042;47.620;12.188;2022-10-31T06:49:49;9.07;;;4.53;;
34828;SDS011;21042;47.620;12.188;2022-10-31T06:52:19;13.77;;;4.78;;
34828;SDS011;21042;47.620;12.188;2022-10-31T06:54:46;12.02;;;4.82;;
34828;SDS011;21042;47.620;12.188;2022-10-31T06:59:40;20.63;;;5.70;;
34828;SDS011;21042;47.620;12.188;2022-10-31T07:02:25;14.40;;;5.30;;
34828;SDS011;21042;47.620;12.188;2022-10-31T07:04:55;16.17;;;5.90;;
34828;SDS011;21042;47.620;12.188;2022-10-31T07:07:22;16.35;;;5.40;;
34828;SDS011;21042;47.620;12.188;2022-10-31T07:09:50;17.33;;;5.80;;
34828;SDS011;21042;47.620;12.188;2022-10-31T07:12:21;17.75;;;5.70;;
34828;SDS011;21042;47.620;12.188;2022-10-31T07:14:55;14.02;;;5.53;;
34828;SDS011;21042;47.620;12.188;2022-10-31T07:17:23;12.55;;;5.03;;
34828;SDS011;21042;47.620;12.188;2022-10-31T07:19:57;12.40;;;5.45;;
34828;SDS011;21042;47.620;12.188;2022-10-31T07:22:23;13.50;;;5.60;;
34828;SDS011;21042;47.620;12.188;2022-10-31T07:24:50;18.15;;;5.30;;
34828;SDS011;21042;47.620;12.188;2022-10-31T07:27:39;12.80;;;5.00;;
34828;SDS011;21042;47.620;12.188;2022-10-31T07:30:11;16.92;;;5.78;;
34828;SDS011;21042;47.620;12.188;2022-10-31T07:32:45;18.08;;;5.60;;
34828;SDS011;21042;47.620;12.188;2022-10-31T07:35:16;13.38;;;5.22;;
34828;SDS011;21042;47.620;12.188;2022-10-31T07:37:46;17.55;;;5.20;;
34828;SDS011;21042;47.620;12.188;2022-10-31T07:40:14;11.70;;;4.72;;
34828;SDS011;21042;47.620;12.188;2022-10-31T07:42:43;14.00;;;5.10;;
34828;SDS011;21042;47.620;12.188;2022-10-31T07:45:33;13.07;;;5.18;;
34828;SDS011;21042;47.620;12.188;2022-10-31T07:48:32;11.90;;;4.88;;
34828;SDS011;21042;47.620;12.188;2022-10-31T07:51:19;17.75;;;5.55;;
34828;SDS011;21042;47.620;12.188;2022-10-31T07:54:15;18.77;;;5.00;;
34828;SDS011;21042;47.620;12.188;2022-10-31T07:56:42;16.20;;;4.93;;
34828;SDS011;21042;47.620;12.188;2022-10-31T07:59:08;11.43;;;4.35;;
34828;SDS011;21042;47.620;12.188;2022-10-31T08:01:35;10.65;;;5.15;;
34828;SDS011;21042;47.620;12.188;2022-10-31T08:04:22;17.10;;;5.20;;
34828;SDS011;21042;47.620;12.188;2022-10-31T08:07:07;10.63;;;3.95;;
34828;SDS011;21042;47.620;12.188;2022-10-31T08:09:36;11.00;;;4.00;;
34828;SDS011;21042;47.620;12.188;2022-10-31T08:12:14;14.05;;;3.80;;
34828;SDS011;21042;47.620;12.188;2022-10-31T08:14:41;12.02;;;4.10;;
34828;SDS011;21042;47.620;12.188;2022-10-31T08:17:08;12.70;;;4.80;;
34828;SDS011;21042;47.620;12.188;2022-10-31T08:19:43;10.05;;;4.20;;
34828;SDS011;21042;47.620;12.188;2022-10-31T08:22:13;14.10;;;4.72;;
34828;SDS011;21042;47.620;12.188;2022-10-31T08:24:40;13.02;;;4.63;;
34828;SDS011;21042;47.620;12.188;2022-10-31T08:27:06;15.45;;;4.10;;
34828;SDS011;21042;47.620;12.188;2022-10-31T08:29:33;13.30;;;4.50;;
34828;SDS011;21042;47.620;12.188;2022-10-31T08:32:00;12.98;;;4.15;;
34828;SDS011;21042;47.620;12.188;2022-10-31T08:34:45;10.35;;;4.53;;
34828;SDS011;21042;47.620;12.188;2022-10-31T08:37:31;16.77;;;4.18;;
34828;SDS011;21042;47.620;12.188;2022-10-31T08:39:58;11.30;;;4.43;;
34828;SDS011;21042;47.620;12.188;2022-10-31T08:42:24;13.18;;;4.63;;
34828;SDS011;21042;47.620;12.188;2022-10-31T08:44:51;12.40;;;4.22;;
34828;SDS011;21042;47.620;12.188;2022-10-31T08:47:20;18.45;;;3.80;;
34828;SDS011;21042;47.620;12.188;2022-10-31T08:49:47;13.95;;;4.10;;
34828;SDS011;21042;47.620;12.188;2022-10-31T08:52:14;9.75;;;4.10;;
34828;SDS011;21042;47.620;12.188;2022-10-31T08:54:45;8.43;;;3.50;;
34828;SDS011;21042;47.620;12.188;2022-10-31T08:57:46;14.73;;;3.88;;
34828;SDS011;21042;47.620;12.188;2022-10-31T09:00:13;14.55;;;4.30;;
34828;SDS011;21042;47.620;12.188;2022-10-31T09:02:58;10.23;;;3.55;;
34828;SDS011;21042;47.620;12.188;2022-10-31T09:05:29;15.30;;;4.00;;
34828;SDS011;21042;47.620;12.188;2022-10-31T09:07:57;11.65;;;3.20;;
34828;SDS011;21042;47.620;12.188;2022-10-31T09:10:26;15.18;;;4.30;;
34828;SDS011;21042;47.620;12.188;2022-10-31T09:12:58;9.68;;;3.50;;
34828;SDS011;21042;47.620;12.188;2022-10-31T09:15:26;15.13;;;3.70;;
34828;SDS011;21042;47.620;12.188;2022-10-31T09:18:17;12.00;;;3.65;;
34828;SDS011;21042;47.620;12.188;2022-10-31T09:20:59;14.40;;;3.92;;
34828;SDS011;21042;47.620;12.188;2022-10-31T09:23:28;11.15;;;3.78;;
34828;SDS011;21042;47.620;12.188;2022-10-31T09:25:58;9.15;;;3.22;;
34828;SDS011;21042;47.620;12.188;2022-10-31T09:28:29;17.77;;;3.63;;
34828;SDS011;21042;47.620;12.188;2022-10-31T09:31:04;12.73;;;3.92;;
34828;SDS011;21042;47.620;12.188;2022-10-31T09:33:54;10.27;;;3.33;;
34828;SDS011;21042;47.620;12.188;2022-10-31T09:36:44;12.73;;;3.60;;
34828;SDS011;21042;47.620;12.188;2022-10-31T09:39:17;13.80;;;3.90;;
34828;SDS011;21042;47.620;12.188;2022-10-31T09:42:09;9.23;;;3.03;;
34828;SDS011;21042;47.620;12.188;2022-10-31T09:50:31;14.73;;;3.38;;
34828;SDS011;21042;47.620;12.188;2022-10-31T09:53:51;10.73;;;2.85;;
34828;SDS011;21042;47.620;12.188;2022-10-31T09:56:22;9.85;;;2.97;;
34828;SDS011;21042;47.620;12.188;2022-10-31T09:58:55;12.10;;;3.47;;
34828;SDS011;21042;47.620;12.188;2022-10-31T10:04:11;8.70;;;3.28;;
34828;SDS011;21042;47.620;12.188;2022-10-31T10:07:19;10.93;;;2.85;;
34828;SDS011;21042;47.620;12.188;2022-10-31T10:10:14;18.48;;;3.17;;
34828;SDS011;21042;47.620;12.188;2022-10-31T10:13:17;13.32;;;3.00;;
34828;SDS011;21042;47.620;12.188;2022-10-31T10:24:43;14.45;;;3.72;;
34828;SDS011;21042;47.620;12.188;2022-10-31T10:30:40;10.57;;;3.45;;
34828;SDS011;21042;47.620;12.188;2022-10-31T10:33:11;11.65;;;3.35;;
34828;SDS011;21042;47.620;12.188;2022-10-31T10:35:49;14.00;;;2.75;;
34828;SDS011;21042;47.620;12.188;2022-10-31T10:38:36;9.70;;;3.20;;
34828;SDS011;21042;47.620;12.188;2022-10-31T10:41:10;12.13;;;2.60;;
34828;SDS011;21042;47.620;12.188;2022-10-31T10:43:42;12.70;;;3.35;;
34828;SDS011;21042;47.620;12.188;2022-10-31T10:46:16;7.47;;;3.22;;
34828;SDS011;21042;47.620;12.188;2022-10-31T10:49:37;11.40;;;3.40;;
34828;SDS011;21042;47.620;12.188;2022-10-31T11:02:47;10.85;;;3.00;;
34828;SDS011;21042;47.620;12.188;2022-10-31T11:05:18;15.80;;;3.58;;
34828;SDS011;21042;47.620;12.188;2022-10-31T11:07:46;8.80;;;2.72;;
34828;SDS011;21042;47.620;12.188;2022-10-31T11:10:13;10.52;;;2.95;;
34828;SDS011;21042;47.620;12.188;2022-10-31T11:12:57;11.85;;;3.10;;
34828;SDS011;21042;47.620;12.188;2022-10-31T11:15:29;18.88;;;5.25;;
34828;SDS011;21042;47.620;12.188;2022-10-31T11:17:59;11.23;;;2.92;;
34828;SDS011;21042;47.620;12.188;2022-10-31T11:20:34;11.68;;;3.70;;
34828;SDS011;21042;47.620;12.188;2022-10-31T11:23:03;8.32;;;2.83;;
34828;SDS011;21042;47.620;12.188;2022-10-31T11:25:47;11.60;;;2.95;;
34828;SDS011;21042;47.620;12.188;2022-10-31T11:28:26;15.68;;;3.90;;
34828;SDS011;21042;47.620;12.188;2022-10-31T11:30:59;8.50;;;3.15;;
34828;SDS011;21042;47.620;12.188;2022-10-31T11:33:34;9.38;;;3.45;;
34828;SDS011;21042;47.620;12.188;2022-10-31T11:39:17;10.48;;;3.10;;
34828;SDS011;21042;47.620;12.188;2022-10-31T11:41:47;9.15;;;3.17;;
34828;SDS011;21042;47.620;12.188;2022-10-31T11:44:20;9.88;;;2.78;;
34828;SDS011;21042;47.620;12.188;2022-10-31T11:46:48;7.20;;;3.00;;
34828;SDS011;21042;47.620;12.188;2022-10-31T11:49:16;8.90;;;2.75;;
34828;SDS011;21042;47.620;12.188;2022-10-31T11:51:55;4.93;;;2.58;;
34828;SDS011;21042;47.620;12.188;2022-10-31T11:54:26;15.73;;;3.22;;
34828;SDS011;21042;47.620;12.188;2022-10-31T11:56:55;10.18;;;3.10;;
34828;SDS011;21042;47.620;12.188;2022-10-31T12:01:49;8.35;;;2.83;;
34828;SDS011;21042;47.620;12.188;2022-10-31T12:04:18;10.30;;;3.35;;
34828;SDS011;21042;47.620;12.188;2022-10-31T12:06:49;8.52;;;2.72;;
34828;SDS011;21042;47.620;12.188;2022-10-31T12:11:52;8.95;;;2.42;;
34828;SDS011;21042;47.620;12.188;2022-10-31T12:19:47;7.45;;;2.75;;
34828;SDS011;21042;47.620;12.188;2022-10-31T12:25:20;5.70;;;1.92;;
34828;SDS011;21042;47.620;12.188;2022-10-31T12:39:23;10.13;;;2.25;;
34828;SDS011;21042;47.620;12.188;2022-10-31T12:45:13;6.00;;;2.17;;
34828;SDS011;21042;47.620;12.188;2022-10-31T12:50:28;17.45;;;3.55;;
34828;SDS011;21042;47.620;12.188;2022-10-31T12:53:29;11.45;;;3.45;;
34828;SDS011;21042;47.620;12.188;2022-10-31T12:56:37;9.00;;;3.35;;
34828;SDS011;21042;47.620;12.188;2022-10-31T12:59:11;10.15;;;2.92;;
34828;SDS011;21042;47.620;12.188;2022-10-31T13:04:54;9.38;;;2.50;;
34828;SDS011;21042;47.620;12.188;2022-10-31T13:07:34;7.90;;;2.65;;
34828;SDS011;21042;47.620;12.188;2022-10-31T13:12:55;7.80;;;2.85;;
34828;SDS011;21042;47.620;12.188;2022-10-31T13:15:29;8.75;;;2.97;;
34828;SDS011;21042;47.620;12.188;2022-10-31T13:18:00;11.27;;;2.38;;
34828;SDS011;21042;47.620;12.188;2022-10-31T13:20:38;13.88;;;3.13;;
34828;SDS011;21042;47.620;12.188;2022-10-31T13:26:15;13.98;;;3.50;;
34828;SDS011;21042;47.620;12.188;2022-10-31T13:31:29;9.82;;;3.28;;
34828;SDS011;21042;47.620;12.188;2022-10-31T13:33:57;8.20;;;2.45;;
34828;SDS011;21042;47.620;12.188;2022-10-31T13:39:09;13.60;;;2.90;;
34828;SDS011;21042;47.620;12.188;2022-10-31T13:41:48;12.73;;;3.28;;
34828;SDS011;21042;47.620;12.188;2022-10-31T13:44:36;9.98;;;2.63;;
34828;SDS011;21042;47.620;12.188;2022-10-31T13:50:18;13.07;;;2.60;;
34828;SDS011;21042;47.620;12.188;2022-10-31T13:52:50;11.23;;;2.65;;
34828;SDS011;21042;47.620;12.188;2022-10-31T13:58:04;6.13;;;3.47;;
34828;SDS011;21042;47.620;12.188;2022-10-31T14:00:46;14.82;;;3.50;;
34828;SDS011;21042;47.620;12.188;2022-10-31T14:03:24;12.38;;;3.60;;
34828;SDS011;21042;47.620;12.188;2022-10-31T14:06:11;18.38;;;3.80;;
34828;SDS011;21042;47.620;12.188;2022-10-31T14:08:47;19.65;;;3.25;;
34828;SDS011;21042;47.620;12.188;2022-10-31T14:11:19;14.43;;;2.80;;
34828;SDS011;21042;47.620;12.188;2022-10-31T14:13:50;16.13;;;3.58;;
34828;SDS011;21042;47.620;12.188;2022-10-31T14:16:18;10.05;;;3.03;;
34828;SDS011;21042;47.620;12.188;2022-10-31T14:18:50;11.65;;;2.88;;
34828;SDS011;21042;47.620;12.188;2022-10-31T14:23:56;15.13;;;2.95;;
34828;SDS011;21042;47.620;12.188;2022-10-31T14:31:54;14.35;;;3.03;;
34828;SDS011;21042;47.620;12.188;2022-10-31T14:42:33;8.00;;;2.78;;
34828;SDS011;21042;47.620;12.188;2022-10-31T14:51:22;10.45;;;3.47;;
34828;SDS011;21042;47.620;12.188;2022-10-31T14:53:51;8.98;;;3.55;;
34828;SDS011;21042;47.620;12.188;2022-10-31T14:56:28;9.98;;;3.47;;
34828;SDS011;21042;47.620;12.188;2022-10-31T14:59:06;10.85;;;3.10;;
34828;SDS011;21042;47.620;12.188;2022-10-31T15:01:38;9.95;;;2.75;;
34828;SDS011;21042;47.620;12.188;2022-10-31T15:04:12;13.52;;;2.75;;
34828;SDS011;21042;47.620;12.188;2022-10-31T15:06:51;13.93;;;3.78;;
34828;SDS011;21042;47.620;12.188;2022-10-31T15:09:32;9.57;;;4.03;;
34828;SDS011;21042;47.620;12.188;2022-10-31T15:12:00;12.98;;;4.47;;
34828;SDS011;21042;47.620;12.188;2022-10-31T15:14:43;15.40;;;3.67;;
34828;SDS011;21042;47.620;12.188;2022-10-31T15:17:09;17.23;;;4.47;;
34828;SDS011;21042;47.620;12.188;2022-10-31T15:19:38;9.90;;;3.95;;
34828;SDS011;21042;47.620;12.188;2022-10-31T15:24:33;15.35;;;4.10;;
34828;SDS011;21042;47.620;12.188;2022-10-31T15:27:02;11.82;;;3.60;;
34828;SDS011;21042;47.620;12.188;2022-10-31T15:29:30;13.15;;;3.47;;
34828;SDS011;21042;47.620;12.188;2022-10-31T15:31:58;19.23;;;3.80;;
34828;SDS011;21042;47.620;12.188;2022-10-31T15:34:40;13.60;;;5.10;;
34828;SDS011;21042;47.620;12.188;2022-10-31T15:37:10;15.63;;;5.05;;
34828;SDS011;21042;47.620;12.188;2022-10-31T15:39:43;17.50;;;4.38;;
34828;SDS011;21042;47.620;12.188;2022-10-31T15:47:45;16.75;;;3.97;;
34828;SDS011;21042;47.620;12.188;2022-10-31T15:50:33;16.38;;;4.20;;
34828;SDS011;21042;47.620;12.188;2022-10-31T15:53:13;11.98;;;3.83;;
34828;SDS011;21042;47.620;12.188;2022-10-31T15:55:51;7.78;;;4.63;;
34828;SDS011;21042;47.620;12.188;2022-10-31T15:58:25;9.77;;;3.60;;
34828;SDS011;21042;47.620;12.188;2022-10-31T16:00:57;8.13;;;3.72;;
34828;SDS011;21042;47.620;12.188;2022-10-31T16:03:32;10.85;;;4.07;;
34828;SDS011;21042;47.620;12.188;2022-10-31T16:06:01;6.20;;;3.20;;
34828;SDS011;21042;47.620;12.188;2022-10-31T16:13:34;13.40;;;5.57;;
34828;SDS011;21042;47.620;12.188;2022-10-31T16:16:14;11.15;;;4.20;;
34828;SDS011;21042;47.620;12.188;2022-10-31T16:19:03;17.05;;;5.55;;
34828;SDS011;21042;47.620;12.188;2022-10-31T16:21:33;22.25;;;8.30;;
34828;SDS011;21042;47.620;12.188;2022-10-31T16:24:03;25.95;;;11.45;;
34828;SDS011;21042;47.620;12.188;2022-10-31T16:26:42;28.05;;;12.32;;
34828;SDS011;21042;47.620;12.188;2022-10-31T16:29:25;41.35;;;14.60;;
34828;SDS011;21042;47.620;12.188;2022-10-31T16:32:22;46.83;;;18.45;;
34828;SDS011;21042;47.620;12.188;2022-10-31T16:37:39;34.72;;;16.55;;
34828;SDS011;21042;47.620;12.188;2022-10-31T16:40:07;29.42;;;12.05;;
34828;SDS011;21042;47.620;12.188;2022-10-31T16:42:36;32.03;;;12.20;;
34828;SDS011;21042;47.620;12.188;2022-10-31T16:45:04;18.55;;;10.77;;
34828;SDS011;21042;47.620;12.188;2022-10-31T16:47:32;22.67;;;9.25;;
34828;SDS011;21042;47.620;12.188;2022-10-31T16:49:58;19.42;;;8.60;;
34828;SDS011;21042;47.620;12.188;2022-10-31T16:52:26;24.58;;;8.15;;
34828;SDS011;21042;47.620;12.188;2022-10-31T16:55:00;14.13;;;6.88;;
34828;SDS011;21042;47.620;12.188;2022-10-31T16:57:27;21.60;;;7.55;;
34828;SDS011;21042;47.620;12.188;2022-10-31T16:59:56;18.92;;;7.80;;
34828;SDS011;21042;47.620;12.188;2022-10-31T17:02:23;15.50;;;7.15;;
34828;SDS011;21042;47.620;12.188;2022-10-31T17:07:22;23.83;;;9.07;;
34828;SDS011;21042;47.620;12.188;2022-10-31T17:09:48;29.05;;;11.75;;
34828;SDS011;21042;47.620;12.188;2022-10-31T17:12:17;27.88;;;9.98;;
34828;SDS011;21042;47.620;12.188;2022-10-31T17:14:47;32.58;;;11.45;;
34828;SDS011;21042;47.620;12.188;2022-10-31T17:17:16;32.35;;;9.38;;
34828;SDS011;21042;47.620;12.188;2022-10-31T17:19:42;32.38;;;11.43;;
34828;SDS011;21042;47.620;12.188;2022-10-31T17:22:12;29.33;;;11.00;;
34828;SDS011;21042;47.620;12.188;2022-10-31T17:24:40;25.30;;;11.02;;
34828;SDS011;21042;47.620;12.188;2022-10-31T17:27:06;24.10;;;11.95;;
34828;SDS011;21042;47.620;12.188;2022-10-31T17:29:33;23.98;;;9.82;;
34828;SDS011;21042;47.620;12.188;2022-10-31T17:32:00;23.45;;;8.68;;
34828;SDS011;21042;47.620;12.188;2022-10-31T17:34:29;15.48;;;6.40;;
34828;SDS011;21042;47.620;12.188;2022-10-31T17:36:56;23.65;;;10.23;;
34828;SDS011;21042;47.620;12.188;2022-10-31T17:39:22;27.20;;;8.88;;
34828;SDS011;21042;47.620;12.188;2022-10-31T17:41:49;21.67;;;7.43;;
34828;SDS011;21042;47.620;12.188;2022-10-31T17:44:17;16.60;;;6.72;;
34828;SDS011;21042;47.620;12.188;2022-10-31T17:46:44;20.00;;;8.27;;
34828;SDS011;21042;47.620;12.188;2022-10-31T17:49:11;24.38;;;11.02;;